Time;durP1;ratioP1;P1;durP2;ratioP2;P2;SDS_P1;SDS_P2;PMS_P1;PMS_P2;Temp;Humidity;BMP_temperature;BMP_pressure;BME280_temperature;BME280_humidity;BME280_pressure;Samples;Min_cycle;Max_cycle;Signal;HPM_P1;HPM_P2
2022/04/02 00:02:31;;;;;;;0.95;0.60;;;;;;;6.57;80.33;98093.22;6322753;28;20051;-71
2022/04/02 00:05:32;;;;;;;0.88;0.70;;;;;;;6.44;79.66;98085.56;6324372;28;20040;-70
2022/04/02 00:08:34;;;;;;;1.85;0.90;;;;;;;6.41;84.13;98082.38;6281509;28;20055;-77
2022/04/02 00:11:35;;;;;;;0.50;0.50;;;;;;;6.30;80.83;98090.09;6310125;28;20054;-77
2022/04/02 00:14:35;;;;;;;2.00;0.63;;;;;;;6.28;81.53;98086.81;6324807;28;20040;-71
2022/04/02 00:17:37;;;;;;;1.38;0.60;;;;;;;6.30;78.66;98103.91;6306668;28;20062;-72
2022/04/02 00:20:38;;;;;;;0.98;0.90;;;;;;;6.32;77.96;98096.00;6320869;28;20053;-71
2022/04/02 00:23:44;;;;;;;0.82;0.75;;;;;;;6.24;77.73;98092.22;6298085;28;20037;-72
2022/04/02 00:26:44;;;;;;;1.23;0.80;;;;;;;6.13;81.37;98093.94;6314239;28;20075;-71
2022/04/02 00:29:45;;;;;;;0.85;0.85;;;;;;;6.21;78.59;98100.19;6297896;28;20036;-72
2022/04/02 00:32:46;;;;;;;1.33;0.95;;;;;;;6.15;76.78;98100.66;6315709;28;20086;-77
2022/04/02 00:35:47;;;;;;;1.55;0.98;;;;;;;6.23;77.66;98103.50;6323820;28;20040;-77
2022/04/02 00:38:49;;;;;;;1.60;1.05;;;;;;;6.37;82.22;98104.25;6322246;28;20063;-77
2022/04/02 00:41:50;;;;;;;1.10;1.00;;;;;;;6.29;84.81;98098.81;6301620;28;20036;-77
2022/04/02 00:44:50;;;;;;;0.95;0.90;;;;;;;6.08;79.06;98107.25;6323644;28;20048;-77
2022/04/02 00:47:51;;;;;;;1.70;1.00;;;;;;;6.14;81.11;98103.38;6324483;28;20070;-77
2022/04/02 00:50:55;;;;;;;0.90;0.82;;;;;;;6.09;80.99;98110.66;6324447;28;20040;-77
2022/04/02 00:53:57;;;;;;;1.10;1.00;;;;;;;5.91;78.86;98108.44;6323190;28;20040;-77
2022/04/02 00:56:58;;;;;;;1.83;1.10;;;;;;;5.76;77.31;98112.13;6324293;28;20055;-77
2022/04/02 00:59:58;;;;;;;1.40;1.10;;;;;;;5.75;77.78;98111.31;6306048;28;20059;-77
2022/04/02 01:03:00;;;;;;;1.35;1.00;;;;;;;5.86;78.72;98108.75;6289915;28;20468;-77
2022/04/02 01:06:01;;;;;;;3.03;1.15;;;;;;;5.96;82.53;98115.91;6320356;28;20089;-77
2022/04/02 01:09:02;;;;;;;1.33;1.10;;;;;;;5.84;77.86;98113.22;6314073;28;20048;-77
2022/04/02 01:12:04;;;;;;;1.85;1.48;;;;;;;5.74;77.69;98116.59;6312923;28;20048;-77
2022/04/02 01:15:05;;;;;;;2.27;1.30;;;;;;;5.86;78.88;98116.53;6322665;28;20388;-76
2022/04/02 01:18:06;;;;;;;3.38;1.60;;;;;;;5.94;79.57;98125.50;6322650;28;20127;-77
2022/04/02 01:21:07;;;;;;;6.28;2.50;;;;;;;5.96;79.85;98123.66;6322560;28;20048;-77
2022/04/02 01:24:08;;;;;;;4.15;1.60;;;;;;;5.98;77.73;98125.19;6322551;28;20044;-77
2022/04/02 01:27:09;;;;;;;2.33;1.63;;;;;;;5.96;78.45;98127.06;6289148;28;20484;-77
2022/04/02 01:30:10;;;;;;;1.88;1.30;;;;;;;6.05;77.67;98128.16;6323483;28;20472;-77
2022/04/02 01:33:12;;;;;;;3.38;1.80;;;;;;;6.13;74.92;98122.44;6288514;28;20040;-77
2022/04/02 01:36:13;;;;;;;3.17;1.65;;;;;;;6.05;76.49;98121.25;6317721;28;20050;-77
2022/04/02 01:39:15;;;;;;;2.33;1.98;;;;;;;6.20;77.41;98121.06;6296538;28;20055;-77
2022/04/02 01:42:20;;;;;;;3.85;1.70;;;;;;;6.16;76.58;98125.63;6312341;28;20048;-71
2022/04/02 01:45:21;;;;;;;1.63;1.52;;;;;;;6.02;73.10;98121.47;6320367;28;20043;-70
2022/04/02 01:48:22;;;;;;;2.25;1.92;;;;;;;6.00;73.70;98122.50;6312531;28;20395;-70
2022/04/02 01:51:23;;;;;;;2.45;1.83;;;;;;;5.78;72.99;98126.59;6298565;28;20051;-71
2022/04/02 01:54:24;;;;;;;3.30;1.90;;;;;;;5.84;76.96;98127.94;6320620;28;20040;-70
2022/04/02 01:57:25;;;;;;;5.68;3.05;;;;;;;5.85;73.48;98138.19;6303412;28;20040;-71
2022/04/02 02:00:26;;;;;;;5.38;2.95;;;;;;;5.86;74.25;98136.41;6320803;28;20413;-71
2022/04/02 02:03:26;;;;;;;5.82;3.20;;;;;;;5.77;72.82;98139.69;6298708;28;20051;-71
2022/04/02 02:06:27;;;;;;;3.88;2.63;;;;;;;5.56;73.19;98137.69;6296784;28;20473;-71
2022/04/02 02:09:28;;;;;;;3.47;2.03;;;;;;;5.76;75.49;98149.19;6296613;28;20071;-70
2022/04/02 02:12:30;;;;;;;5.07;2.65;;;;;;;5.73;73.54;98146.84;6295616;28;20377;-70
2022/04/02 02:15:30;;;;;;;3.25;2.42;;;;;;;5.74;72.89;98145.88;6295627;28;20051;-70
2022/04/02 02:18:31;;;;;;;5.45;2.65;;;;;;;5.65;73.57;98149.94;6312504;28;20123;-71
2022/04/02 02:21:32;;;;;;;4.35;3.10;;;;;;;5.75;73.75;98146.72;6306060;28;20114;-70
2022/04/02 02:24:33;;;;;;;6.72;4.07;;;;;;;5.50;73.44;98142.44;6294822;28;20051;-70
2022/04/02 02:27:34;;;;;;;7.95;3.50;;;;;;;5.59;74.23;98142.63;6311202;28;20324;-70
2022/04/02 02:30:36;;;;;;;5.80;3.27;;;;;;;5.66;72.79;98140.44;6297319;28;20479;-70
2022/04/02 02:36:57;;;;;;;4.45;2.92;;;;;;;5.53;72.93;98148.25;6319433;28;20051;-70
2022/04/02 02:39:58;;;;;;;3.42;2.65;;;;;;;5.51;73.06;98134.59;6319248;28;20051;-71
2022/04/02 02:42:59;;;;;;;3.63;2.80;;;;;;;5.48;74.64;98141.72;6297412;28;20044;-70
2022/04/02 02:46:00;;;;;;;5.22;3.10;;;;;;;5.21;72.78;98138.41;6295338;28;20405;-70
2022/04/02 02:49:01;;;;;;;4.70;2.97;;;;;;;5.33;74.39;98135.88;6310731;28;20064;-70
2022/04/02 02:52:03;;;;;;;4.32;3.13;;;;;;;5.57;74.89;98138.50;6311508;28;20443;-70
2022/04/02 02:55:04;;;;;;;5.85;3.40;;;;;;;5.62;75.52;98141.56;6311852;28;20044;-71
2022/04/02 02:58:05;;;;;;;4.95;3.50;;;;;;;5.51;74.63;98132.00;6294968;28;20072;-70
2022/04/02 03:01:06;;;;;;;5.28;3.50;;;;;;;5.41;75.42;98131.00;6302190;28;20101;-70
2022/04/02 03:04:07;;;;;;;4.10;3.00;;;;;;;5.36;76.77;98135.69;6320022;28;20052;-70
2022/04/02 03:07:08;;;;;;;3.72;3.10;;;;;;;5.30;74.17;98138.69;6321056;28;20127;-70
2022/04/02 03:10:09;;;;;;;5.33;3.30;;;;;;;5.37;74.68;98130.38;6320842;28;20053;-70
2022/04/02 03:13:10;;;;;;;4.40;3.10;;;;;;;5.16;74.18;98143.03;6295268;28;20045;-70
2022/04/02 03:16:11;;;;;;;4.70;3.63;;;;;;;5.22;74.94;98137.44;6294788;28;20094;-70
2022/04/02 03:19:12;;;;;;;4.30;3.05;;;;;;;5.10;73.94;98137.47;6311554;28;20052;-71
2022/04/02 03:22:13;;;;;;;4.38;3.05;;;;;;;4.87;75.03;98145.06;6295675;28;20476;-71
2022/04/02 03:25:19;;;;;;;4.63;3.33;;;;;;;5.00;75.24;98142.44;6311535;28;20045;-71
2022/04/02 03:28:20;;;;;;;4.20;2.75;;;;;;;5.17;73.71;98149.88;6294651;28;20071;-71
2022/04/02 03:31:22;;;;;;;3.72;2.63;;;;;;;5.14;72.53;98154.44;6304928;28;20090;-70
2022/04/02 03:34:23;;;;;;;4.47;3.53;;;;;;;5.23;75.07;98159.81;6319751;28;20484;-70
2022/04/02 03:37:24;;;;;;;3.65;2.70;;;;;;;5.13;71.61;98160.56;6319581;28;20131;-70
2022/04/02 03:40:26;;;;;;;4.57;3.30;;;;;;;5.19;72.70;98163.53;6304240;28;20428;-73
2022/04/02 03:43:27;;;;;;;4.30;3.22;;;;;;;4.88;71.65;98179.47;6318545;28;20756;-70
2022/04/02 03:49:47;;;;;;;5.43;3.70;;;;;;;4.88;73.84;98177.72;6318801;28;20117;-72
2022/04/02 03:52:48;;;;;;;4.72;3.38;;;;;;;4.96;73.08;98174.59;6296678;28;20037;-71
2022/04/02 03:55:49;;;;;;;6.88;3.33;;;;;;;4.94;74.26;98184.22;6294808;28;20072;-72
2022/04/02 03:58:50;;;;;;;4.53;3.60;;;;;;;5.07;72.46;98179.06;6298949;28;20049;-70
2022/04/02 04:01:51;;;;;;;4.63;3.25;;;;;;;5.13;72.39;98181.22;6297587;28;20557;-76
2022/04/02 04:04:52;;;;;;;5.90;3.95;;;;;;;5.24;72.49;98189.06;6297561;28;20053;-71
2022/04/02 04:07:53;;;;;;;6.00;3.70;;;;;;;5.11;71.07;98191.69;6314109;28;20096;-71
2022/04/02 04:10:54;;;;;;;6.38;3.72;;;;;;;5.03;71.90;98187.00;6314697;28;20066;-70
2022/04/02 04:13:55;;;;;;;4.55;2.95;;;;;;;4.91;72.96;98192.19;6298587;28;20178;-71
2022/04/02 04:16:56;;;;;;;5.22;3.85;;;;;;;5.01;73.08;98201.00;6308260;28;20480;-70
2022/04/02 04:19:57;;;;;;;6.60;3.60;;;;;;;5.12;74.44;98197.66;6323520;28;20059;-70
2022/04/02 04:22:57;;;;;;;5.03;3.17;;;;;;;5.12;73.69;98195.09;6302745;28;20507;-70
2022/04/02 04:25:58;;;;;;;6.15;4.00;;;;;;;5.18;73.71;98197.25;6298298;28;20063;-70
2022/04/02 04:28:59;;;;;;;5.65;4.00;;;;;;;5.09;74.39;98205.66;6297932;28;20127;-70
2022/04/02 04:31:59;;;;;;;6.95;4.32;;;;;;;5.07;74.48;98204.91;6312791;28;20036;-70
2022/04/02 04:35:00;;;;;;;6.78;4.70;;;;;;;4.99;74.53;98214.00;6340377;28;20075;-70
2022/04/02 04:38:01;;;;;;;4.97;3.72;;;;;;;5.00;74.16;98220.00;6322948;28;20048;-70
2022/04/02 04:41:03;;;;;;;5.38;4.00;;;;;;;5.22;73.64;98221.97;6323065;28;20044;-71
2022/04/02 04:44:04;;;;;;;5.00;3.63;;;;;;;4.80;76.00;98226.53;6323969;28;20132;-70
2022/04/02 04:47:05;;;;;;;6.93;4.50;;;;;;;5.13;73.95;98227.78;6324092;28;20528;-70
2022/04/02 04:50:07;;;;;;;5.00;3.70;;;;;;;4.97;74.33;98239.13;6322740;28;20109;-71
2022/04/02 04:53:09;;;;;;;6.38;4.82;;;;;;;4.88;74.26;98242.34;6322626;28;20074;-70
2022/04/02 04:56:10;;;;;;;5.80;4.10;;;;;;;4.79;74.53;98250.69;6323691;28;20043;-70
2022/04/02 04:59:12;;;;;;;6.50;4.55;;;;;;;4.76;75.19;98251.72;6322505;28;20047;-70
2022/04/02 05:02:13;;;;;;;6.95;4.70;;;;;;;4.81;72.78;98256.59;6298069;28;20123;-71
2022/04/02 05:05:14;;;;;;;9.77;4.38;;;;;;;4.71;73.85;98265.88;6280553;28;20037;-70
2022/04/02 05:08:15;;;;;;;10.27;5.20;;;;;;;4.78;76.96;98264.56;6295856;28;20132;-71
2022/04/02 05:11:16;;;;;;;8.13;4.32;;;;;;;4.77;74.21;98268.03;6332298;28;20333;-70
2022/04/02 05:14:17;;;;;;;7.13;4.75;;;;;;;4.80;75.22;98271.25;6305315;28;20511;-71
2022/04/02 05:17:18;;;;;;;6.60;4.13;;;;;;;4.76;73.33;98271.56;6323240;28;20071;-70
2022/04/02 05:20:19;;;;;;;5.30;4.13;;;;;;;4.73;74.21;98277.75;6321831;28;20058;-70
2022/04/02 05:23:20;;;;;;;9.82;5.45;;;;;;;4.76;73.52;98272.41;6288617;28;20052;-71
2022/04/02 05:26:21;;;;;;;6.47;4.40;;;;;;;4.68;74.43;98290.16;6322952;28;20411;-71
2022/04/02 05:29:22;;;;;;;6.13;4.32;;;;;;;4.63;75.73;98289.59;6320846;28;20445;-71
2022/04/02 05:32:23;;;;;;;7.95;5.30;;;;;;;4.66;73.92;98302.34;6287337;28;20039;-71
2022/04/02 05:35:24;;;;;;;7.78;4.85;;;;;;;4.84;74.36;98293.41;6322043;28;20062;-71
2022/04/02 05:38:27;;;;;;;11.15;5.93;;;;;;;5.01;75.69;98294.03;6321804;28;20055;-71
2022/04/02 05:41:28;;;;;;;;;;;;;;;5.13;75.69;98295.81;6301460;28;20045;-73
2022/04/02 05:44:30;;;;;;;5.82;4.22;;;;;;;5.07;73.04;98295.41;6295107;28;20364;-72
2022/04/02 05:47:42;;;;;;;6.47;4.38;;;;;;;4.96;73.64;98291.78;6295219;28;20048;-71
2022/04/02 05:50:43;;;;;;;7.87;4.97;;;;;;;5.02;75.45;98291.38;6300282;28;20541;-72
2022/04/02 05:53:44;;;;;;;7.35;4.57;;;;;;;4.91;72.56;98298.97;6320189;28;20633;-72
2022/04/02 05:56:45;;;;;;;9.48;5.28;;;;;;;4.82;74.34;98307.34;6303181;28;20082;-72
2022/04/02 05:59:46;;;;;;;8.93;4.90;;;;;;;4.82;75.75;98304.78;6321331;28;20054;-72
2022/04/02 06:02:47;;;;;;;5.72;4.53;;;;;;;4.64;74.16;98309.38;6321057;28;20388;-72
2022/04/02 06:05:49;;;;;;;8.68;5.45;;;;;;;4.82;74.91;98309.94;6302992;28;20067;-71
2022/04/02 06:08:49;;;;;;;8.75;5.20;;;;;;;4.71;73.81;98302.03;6319261;28;20056;-71
2022/04/02 06:11:50;;;;;;;8.52;4.95;;;;;;;4.80;73.37;98309.22;6302418;28;20431;-72
2022/04/02 06:14:51;;;;;;;9.32;4.90;;;;;;;4.86;73.76;98303.63;6316759;28;20420;-72
2022/04/02 06:17:52;;;;;;;8.55;5.45;;;;;;;4.69;74.44;98302.13;6294524;28;20142;-72
2022/04/02 06:20:53;;;;;;;9.30;4.68;;;;;;;4.67;73.26;98310.91;6294651;28;20113;-72
2022/04/02 06:23:54;;;;;;;6.50;4.38;;;;;;;4.81;73.13;98303.91;6331065;28;20415;-71
2022/04/02 06:26:55;;;;;;;8.10;5.40;;;;;;;4.72;74.90;98307.13;6319396;28;20109;-72
2022/04/02 06:29:57;;;;;;;7.07;4.55;;;;;;;4.81;72.32;98308.25;6319205;28;20400;-72
2022/04/02 06:33:00;;;;;;;;;;;;;;;4.81;73.81;98316.84;6321140;28;20036;-72
2022/04/02 06:36:01;;;;;;;7.13;4.22;;;;;;;4.91;72.39;98316.25;6319479;28;20287;-72
2022/04/02 06:39:02;;;;;;;8.13;4.55;;;;;;;4.90;71.89;98327.50;6336507;28;20047;-72
2022/04/02 06:42:04;;;;;;;6.40;4.53;;;;;;;4.99;73.33;98321.75;6319314;28;20438;-72
2022/04/02 06:45:05;;;;;;;8.32;5.25;;;;;;;4.95;71.58;98322.88;6281459;28;20416;-71
2022/04/02 06:48:06;;;;;;;6.70;4.50;;;;;;;5.01;75.22;98327.66;6294201;28;20720;-72
2022/04/02 06:51:07;;;;;;;6.93;3.85;;;;;;;4.97;72.14;98329.59;6293842;28;20052;-72
2022/04/02 06:54:09;;;;;;;9.20;5.50;;;;;;;4.92;73.96;98329.09;6310687;28;20045;-71
2022/04/02 06:57:10;;;;;;;5.93;4.55;;;;;;;5.24;71.98;98341.63;6293999;28;20048;-71
2022/04/02 07:00:12;;;;;;;6.82;4.70;;;;;;;5.33;71.98;98335.00;6310716;28;20056;-71
2022/04/02 07:03:13;;;;;;;9.05;5.82;;;;;;;5.49;73.87;98329.66;6293948;28;20041;-71
2022/04/02 07:06:13;;;;;;;8.25;5.72;;;;;;;5.47;72.35;98337.50;6310631;28;20408;-71
2022/04/02 07:09:15;;;;;;;10.40;5.78;;;;;;;5.63;71.18;98347.66;6293712;28;20136;-71
2022/04/02 07:12:16;;;;;;;8.27;5.80;;;;;;;5.62;70.74;98343.41;6301027;28;20044;-72
2022/04/02 07:15:16;;;;;;;10.98;6.03;;;;;;;5.67;72.06;98356.03;6318857;28;20376;-71
2022/04/02 07:18:18;;;;;;;8.40;5.72;;;;;;;5.78;71.51;98359.53;6321079;28;20083;-72
2022/04/02 07:21:21;;;;;;;9.70;6.57;;;;;;;5.53;71.78;98365.56;6310607;28;20066;-71
2022/04/02 07:24:22;;;;;;;9.05;6.53;;;;;;;5.43;71.67;98361.91;6295696;28;20481;-72
2022/04/02 07:27:26;;;;;;;6.75;4.97;;;;;;;5.33;71.15;98366.06;6294969;28;20067;-71
2022/04/02 07:30:27;;;;;;;23.63;11.80;;;;;;;5.59;71.51;98364.31;6320189;28;20421;-71
2022/04/02 07:33:28;;;;;;;40.65;21.88;;;;;;;5.85;72.45;98350.44;6324766;28;20036;-71
2022/04/02 07:36:48;;;;;;;11.35;6.65;;;;;;;5.81;71.01;98350.75;6325333;28;20085;-72
2022/04/02 07:39:55;;;;;;;11.48;7.00;;;;;;;5.72;69.53;98365.13;6325686;28;20074;-72
2022/04/02 07:43:14;;;;;;;11.93;7.10;;;;;;;5.69;70.04;98367.13;6312623;28;20481;-77
2022/04/02 07:46:18;;;;;;;14.27;7.80;;;;;;;5.56;74.40;98370.53;6303520;28;20040;-77
2022/04/02 07:49:21;;;;;;;22.20;11.35;;;;;;;5.58;69.98;98365.22;6321216;28;21056;-77
2022/04/02 07:52:23;;;;;;;93.45;35.15;;;;;;;5.77;70.02;98368.25;6315947;28;20105;-77
2022/04/02 07:55:25;;;;;;;28.85;12.75;;;;;;;5.80;69.21;98373.19;6323155;28;20128;-77
2022/04/02 07:58:31;;;;;;;24.77;14.03;;;;;;;5.94;70.11;98380.03;6306334;28;20117;-77
2022/04/02 08:01:32;;;;;;;13.27;6.82;;;;;;;5.81;72.17;98387.81;6324295;28;20036;-78
2022/04/02 08:04:33;;;;;;;12.98;7.10;;;;;;;5.93;69.97;98377.53;6300336;28;20059;-78
2022/04/02 08:07:36;;;;;;;14.23;8.80;;;;;;;6.23;70.49;98385.81;6297480;28;20052;-77
2022/04/02 08:10:37;;;;;;;17.40;10.80;;;;;;;6.12;68.59;98384.94;6305879;28;20047;-78
2022/04/02 08:13:41;;;;;;;11.95;7.93;;;;;;;6.32;67.66;98386.97;6323925;28;20484;-78
2022/04/02 08:16:43;;;;;;;18.20;12.00;;;;;;;6.18;68.25;98392.28;6323830;28;20046;-78
2022/04/02 08:19:45;;;;;;;16.80;10.40;;;;;;;6.31;69.17;98387.06;6324010;28;20044;-78
2022/04/02 08:22:47;;;;;;;;;;;;;;;6.28;67.92;98392.44;6322257;28;20487;-78
2022/04/02 08:26:04;;;;;;;11.82;6.97;;;;;;;6.45;67.02;98392.09;6322873;28;19927;-78
2022/04/02 08:29:17;;;;;;;12.73;5.63;;;;;;;6.14;68.06;98391.66;6305392;28;20048;-78
2022/04/02 08:32:41;;;;;;;15.30;8.90;;;;;;;6.33;68.04;98385.19;6323398;28;20399;-77
2022/04/02 08:36:14;;;;;;;11.68;7.18;;;;;;;6.53;68.07;98382.03;6321814;28;20048;-77
2022/04/02 08:39:27;;;;;;;26.38;10.70;;;;;;;6.38;67.17;98386.53;6322099;28;20201;-78
2022/04/02 08:42:41;;;;;;;12.50;7.45;;;;;;;6.22;69.03;98399.72;6321645;28;20047;-77
2022/04/02 08:46:26;;;;;;;11.43;6.78;;;;;;;6.27;68.86;98394.19;6321635;28;20055;-78
2022/04/02 08:49:38;;;;;;;15.02;7.75;;;;;;;6.84;66.31;98400.56;6312262;28;20052;-78
2022/04/02 08:52:51;;;;;;;12.05;6.90;;;;;;;7.03;65.63;98397.47;6322898;28;20036;-78
2022/04/02 08:56:03;;;;;;;11.05;6.57;;;;;;;6.86;65.40;98401.28;6322639;28;20044;-78
2022/04/02 08:59:07;;;;;;;12.87;7.57;;;;;;;6.86;67.62;98394.31;6321703;28;20476;-78
2022/04/02 09:02:46;;;;;;;16.70;6.65;;;;;;;6.94;64.98;98400.69;6321311;28;20063;-78
2022/04/02 09:06:11;;;;;;;13.32;7.40;;;;;;;7.00;66.89;98401.13;6322466;28;20047;-78
2022/04/02 09:09:24;;;;;;;11.07;6.65;;;;;;;6.88;66.59;98404.59;6321219;28;20126;-78
2022/04/02 09:13:07;;;;;;;14.80;6.57;;;;;;;7.16;68.03;98411.19;6322320;28;20058;-78
2022/04/02 09:16:11;;;;;;;;;;;;;;;7.36;64.64;98422.69;6322745;28;20040;-78
2022/04/02 09:19:13;;;;;;;11.38;7.00;;;;;;;7.49;67.23;98421.78;6322223;28;19927;-78
2022/04/02 09:22:30;;;;;;;9.43;5.32;;;;;;;7.75;65.49;98423.25;6320990;28;20105;-78
2022/04/02 09:25:46;;;;;;;11.77;5.47;;;;;;;7.22;62.48;98413.31;6312184;28;20104;-78
2022/04/02 09:29:17;;;;;;;18.45;9.38;;;;;;;7.51;65.08;98428.50;6295641;28;20386;-78
2022/04/02 09:32:27;;;;;;;9.63;5.63;;;;;;;7.33;67.29;98427.28;6312318;28;20071;-78
2022/04/02 09:35:57;;;;;;;7.47;5.63;;;;;;;7.67;67.25;98421.22;6295324;28;20044;-78
2022/04/02 09:39:05;;;;;;;7.53;5.32;;;;;;;7.59;61.79;98427.94;6296618;28;20040;-73
2022/04/02 09:42:41;;;;;;;11.30;6.68;;;;;;;8.04;61.93;98426.25;6313211;28;20503;-72
2022/04/02 09:46:40;;;;;;;8.80;5.70;;;;;;;7.99;63.20;98425.78;6296204;28;20048;-72
2022/04/02 09:49:47;;;;;;;14.70;7.13;;;;;;;7.63;62.36;98437.16;6245063;28;20084;-73
2022/04/02 09:53:23;;;;;;;17.42;8.77;;;;;;;7.88;63.23;98434.34;6295565;28;20047;-72
2022/04/02 09:56:33;;;;;;;11.85;6.90;;;;;;;8.13;62.71;98439.47;6295930;28;20052;-72
2022/04/02 09:59:54;;;;;;;6.85;5.20;;;;;;;7.95;62.62;98447.72;6296122;28;20411;-72
2022/04/02 10:03:04;;;;;;;8.90;5.35;;;;;;;8.29;63.35;98439.94;6288828;28;20496;-72
2022/04/02 10:06:20;;;;;;;13.75;7.93;;;;;;;8.31;60.75;98442.44;6311475;28;20044;-72
2022/04/02 10:09:23;;;;;;;8.95;6.10;;;;;;;8.70;61.78;98440.31;6295645;28;20041;-73
2022/04/02 10:12:27;;;;;;;12.75;7.32;;;;;;;8.71;58.87;98435.00;6295730;28;20098;-72
2022/04/02 10:15:30;;;;;;;9.13;5.78;;;;;;;8.66;60.76;98434.50;6294254;28;20064;-72
2022/04/02 10:18:35;;;;;;;9.70;6.45;;;;;;;8.70;59.67;98437.69;6295751;28;20040;-72
2022/04/02 10:21:38;;;;;;;13.77;7.00;;;;;;;8.98;62.64;98433.75;6295582;28;20122;-73
2022/04/02 10:24:40;;;;;;;;;;;;;;;9.27;59.28;98445.22;6294956;28;20036;-73
2022/04/02 10:27:42;;;;;;;13.00;6.32;;;;;;;8.88;59.59;98444.03;6277473;28;19920;-72
2022/04/02 10:30:47;;;;;;;9.18;5.47;;;;;;;8.62;60.74;98448.69;6277758;28;20045;-72
2022/04/02 10:33:52;;;;;;;9.43;6.28;;;;;;;9.02;62.02;98450.75;6295525;28;20484;-72
2022/04/02 10:37:00;;;;;;;7.50;5.57;;;;;;;8.72;62.29;98446.22;6295397;28;20044;-72
2022/04/02 10:40:05;;;;;;;11.48;6.53;;;;;;;8.75;60.32;98448.56;6295256;28;20485;-73
2022/04/02 10:43:30;;;;;;;8.10;4.57;;;;;;;8.55;59.58;98445.75;6299781;28;20514;-73
2022/04/02 10:46:32;;;;;;;8.88;6.03;;;;;;;8.76;59.96;98451.03;6303921;28;20512;-72
2022/04/02 10:49:34;;;;;;;;;;;;;;;9.00;59.83;98461.28;6295659;28;20040;-72
2022/04/02 10:52:36;;;;;;;7.53;5.45;;;;;;;9.29;63.54;98452.91;6299556;28;19920;-73
2022/04/02 10:55:53;;;;;;;8.90;5.80;;;;;;;9.79;57.27;98460.13;6319011;28;20047;-72
2022/04/02 10:58:54;;;;;;;7.50;5.18;;;;;;;9.19;56.36;98471.03;6320131;28;20383;-73
2022/04/02 11:01:59;;;;;;;8.27;4.87;;;;;;;9.17;56.90;98462.53;6319038;28;20044;-73
2022/04/02 11:05:04;;;;;;;12.15;6.47;;;;;;;9.53;56.96;98457.88;6319527;28;20172;-73
2022/04/02 11:08:10;;;;;;;7.25;4.97;;;;;;;9.59;55.54;98466.97;6324942;28;20060;-73
2022/04/02 11:11:24;;;;;;;7.88;5.50;;;;;;;9.41;61.65;98458.88;6325195;28;20035;-72
2022/04/02 11:14:25;;;;;;;10.15;6.15;;;;;;;9.59;57.86;98464.34;6325127;28;20385;-73
2022/04/02 11:17:29;;;;;;;7.97;4.88;;;;;;;9.55;58.12;98461.16;6324968;28;20093;-73
2022/04/02 11:20:32;;;;;;;8.35;5.35;;;;;;;9.15;60.17;98474.81;6324734;28;20066;-73
2022/04/02 11:23:47;;;;;;;5.90;4.57;;;;;;;8.71;60.69;98458.38;6324954;28;20582;-73
2022/04/02 11:26:50;;;;;;;9.48;4.88;;;;;;;8.97;58.64;98465.88;6323553;28;20128;-73
2022/04/02 11:29:51;;;;;;;5.57;4.18;;;;;;;9.41;56.52;98462.31;6323512;28;20036;-73
2022/04/02 11:33:01;;;;;;;8.98;5.10;;;;;;;9.47;57.02;98463.56;6306478;28;20037;-73
2022/04/02 11:36:06;;;;;;;6.63;4.53;;;;;;;9.11;57.32;98460.41;6324647;28;20064;-73
2022/04/02 11:39:11;;;;;;;11.68;5.28;;;;;;;9.04;57.79;98454.06;6324491;28;20048;-73
2022/04/02 11:42:14;;;;;;;10.63;5.32;;;;;;;9.13;61.56;98455.91;6323278;28;20040;-73
2022/04/02 11:45:19;;;;;;;7.07;4.95;;;;;;;8.89;60.28;98456.09;6324377;28;20040;-73
2022/04/02 11:48:31;;;;;;;7.25;5.00;;;;;;;9.22;58.16;98459.53;6323019;28;20043;-73
2022/04/02 11:51:33;;;;;;;7.93;5.00;;;;;;;9.08;56.90;98461.50;6323019;28;20507;-73
2022/04/02 11:54:49;;;;;;;6.22;4.43;;;;;;;9.03;58.41;98468.81;6324188;28;20044;-74
2022/04/02 11:58:07;;;;;;;5.75;4.07;;;;;;;8.98;57.77;98465.78;6323984;28;20036;-73
2022/04/02 12:01:08;;;;;;;8.15;5.25;;;;;;;9.02;57.51;98461.97;6324071;28;20419;-74
2022/04/02 12:04:17;;;;;;;7.60;4.95;;;;;;;9.10;58.61;98471.78;6324247;28;20043;-74
2022/04/02 12:07:20;;;;;;;12.13;6.07;;;;;;;9.26;58.52;98469.56;6339373;28;20052;-71
2022/04/02 12:10:26;;;;;;;7.40;4.95;;;;;;;9.14;56.74;98467.13;6323700;28;20119;-73
2022/04/02 12:13:27;;;;;;;7.40;5.55;;;;;;;9.13;56.67;98470.72;6323794;28;20035;-73
2022/04/02 12:16:29;;;;;;;11.18;6.68;;;;;;;9.07;57.35;98469.41;6321753;28;20472;-73
2022/04/02 12:19:44;;;;;;;6.15;4.30;;;;;;;9.09;57.16;98470.13;6305701;28;20040;-71
2022/04/02 12:22:46;;;;;;;6.72;5.15;;;;;;;8.80;58.13;98481.06;6322576;28;20051;-71
2022/04/02 12:25:59;;;;;;;8.10;5.75;;;;;;;9.20;57.06;98471.84;6323507;28;20055;-74
2022/04/02 12:29:02;;;;;;;9.18;5.32;;;;;;;9.15;58.07;98472.22;6321925;28;20062;-74
2022/04/02 12:32:03;;;;;;;11.20;6.15;;;;;;;9.26;57.68;98476.56;6339223;28;20093;-72
2022/04/02 12:35:14;;;;;;;12.00;6.30;;;;;;;9.38;57.68;98475.56;6322005;28;20045;-75
2022/04/02 12:38:28;;;;;;;11.38;4.85;;;;;;;8.84;57.07;98473.84;6322995;28;20048;-74
2022/04/02 12:41:29;;;;;;;11.65;6.78;;;;;;;9.00;58.84;98476.06;6323072;28;20123;-72
2022/04/02 12:44:30;;;;;;;9.32;5.18;;;;;;;8.83;59.67;98466.97;6323048;28;20055;-73
2022/04/02 12:47:33;;;;;;;9.77;5.13;;;;;;;9.11;56.18;98476.03;6322809;28;20036;-71
2022/04/02 12:50:49;;;;;;;7.05;4.80;;;;;;;9.27;54.78;98479.06;6321590;28;20112;-74
2022/04/02 12:53:58;;;;;;;6.28;4.45;;;;;;;9.24;57.16;98478.47;6322651;28;20123;-73
2022/04/02 12:57:19;;;;;;;10.18;7.10;;;;;;;9.32;56.84;98477.84;6322660;28;20040;-72
2022/04/02 13:00:35;;;;;;;10.55;5.38;;;;;;;9.08;55.53;98477.09;6321299;28;20109;-71
2022/04/02 13:03:56;;;;;;;13.63;5.57;;;;;;;8.93;55.94;98480.09;6321483;28;20131;-71
2022/04/02 13:07:05;;;;;;;7.93;5.05;;;;;;;8.61;58.96;98479.06;6322329;28;20052;-72
2022/04/02 13:10:13;;;;;;;12.25;5.78;;;;;;;9.00;58.70;98481.28;6321001;28;20040;-73
2022/04/02 13:13:15;;;;;;;8.98;5.57;;;;;;;8.87;56.60;98477.03;6321208;28;20473;-72
2022/04/02 13:16:17;;;;;;;8.35;5.47;;;;;;;8.80;57.49;98481.06;6320946;28;20260;-72
2022/04/02 13:22:53;;;;;;;10.93;5.05;;;;;;;8.49;57.43;98476.63;6322045;28;20067;-72
2022/04/02 13:26:05;;;;;;;5.75;4.32;;;;;;;8.42;58.96;98484.03;6320851;28;20432;-73
2022/04/02 13:29:34;;;;;;;7.10;5.07;;;;;;;8.35;59.13;98486.25;6321272;28;20076;-72
2022/04/02 13:33:04;;;;;;;8.27;4.70;;;;;;;8.27;63.26;98484.22;6320641;28;20472;-72
2022/04/02 13:36:30;;;;;;;8.43;4.95;;;;;;;8.50;61.37;98486.88;6321828;28;20044;-72
2022/04/02 13:39:36;;;;;;;9.35;5.38;;;;;;;8.23;63.40;98488.00;6321520;28;20549;-72
2022/04/02 13:43:03;;;;;;;7.18;4.90;;;;;;;7.70;63.65;98489.44;6320622;28;20040;-72
2022/04/02 13:46:10;;;;;;;6.57;4.90;;;;;;;7.83;67.07;98501.41;6321593;28;20105;-73
2022/04/02 13:49:12;;;;;;;5.70;4.18;;;;;;;7.82;64.01;98504.97;6321435;28;20419;-72
2022/04/02 13:52:20;;;;;;;8.82;4.38;;;;;;;7.52;67.57;98500.25;6321398;28;20036;-72
2022/04/02 13:55:26;;;;;;;7.72;4.32;;;;;;;7.41;64.37;98507.97;6319249;28;20513;-72
2022/04/02 13:58:33;;;;;;;7.63;4.70;;;;;;;7.13;68.49;98503.97;6311195;28;20079;-73
2022/04/02 14:01:39;;;;;;;6.25;4.28;;;;;;;7.49;66.45;98513.44;6295501;28;20119;-72
2022/04/02 14:04:50;;;;;;;7.22;4.18;;;;;;;7.32;65.42;98521.63;6295315;28;20048;-72
2022/04/02 14:08:02;;;;;;;5.68;4.00;;;;;;;7.30;67.21;98521.72;6294886;28;20131;-72
2022/04/02 14:11:17;;;;;;;4.57;3.50;;;;;;;7.30;64.72;98526.09;6295156;28;20465;-72
2022/04/02 14:14:25;;;;;;;5.95;4.28;;;;;;;7.32;66.90;98540.63;6295370;28;20045;-73
2022/04/02 14:17:29;;;;;;;9.07;4.93;;;;;;;7.02;68.21;98538.44;6294853;28;20123;-72
2022/04/02 14:20:30;;;;;;;5.20;4.03;;;;;;;7.08;68.12;98538.00;6295157;28;20072;-73
2022/04/02 14:23:36;;;;;;;8.77;4.90;;;;;;;7.17;68.38;98539.13;6294800;28;20048;-72
2022/04/02 14:26:48;;;;;;;6.13;4.18;;;;;;;6.96;67.13;98533.66;6295163;28;20400;-72
2022/04/02 14:30:30;;;;;;;8.73;5.03;;;;;;;6.95;66.41;98543.22;6310211;28;20044;-72
2022/04/02 14:34:09;;;;;;;8.00;4.60;;;;;;;7.04;67.28;98542.59;6293678;28;20044;-72
2022/04/02 14:37:25;;;;;;;5.82;4.28;;;;;;;7.03;65.50;98540.09;6310694;28;20449;-72
2022/04/02 14:40:51;;;;;;;9.50;5.45;;;;;;;7.02;67.48;98546.19;6294499;28;20070;-72
2022/04/02 14:44:24;;;;;;;7.03;5.30;;;;;;;6.93;68.41;98546.88;6294470;28;20068;-72
2022/04/02 14:47:43;;;;;;;;;;;;;;;7.11;72.04;98555.94;6295131;28;20044;-73
2022/04/02 14:51:21;;;;;;;12.20;6.50;;;;;;;6.94;67.98;98556.28;6294550;28;20403;-72
2022/04/02 14:54:57;;;;;;;12.13;6.10;;;;;;;6.70;69.43;98548.47;6311445;28;20066;-72
2022/04/02 14:58:21;;;;;;;14.05;6.40;;;;;;;6.69;72.43;98559.75;6319533;28;20124;-72